»·PEaware :: SKW5481 KPSP-KSFO

SKW5481 :: KPSP-KSFO

FLIGHT INFORMATION

Flight Status: Arrived
Operator:
SkyWest Airlines
More flights by this operator :: More flights under this callsign
Pilot: Cameron C. (12810)
Aircraft: EMBRAER EMB-170/175
(E170)
More flights by this aircraft type
Origin: KPSP Palm Springs Intl
United States
Destination: KSFO San Francisco Intl
United States
More flights between these airports :: More routes between these airports
Route: CATH1 PSP V386 PMD MAKRS SERFR SERFR2
File this flight plan on PilotEdge
Remarks:
Altitude:
(Current/Filed)
28,000ft
Speed:
(Current/Filed)
450kts
Departed: 04-Oct-17 06:15 PM
Arrived: 04-Oct-17 07:29 PM
Distance/Time
Traveled:
366nm/1:13
Distance/Time
To Go:
Arrived

Flight Plot

Page will automatically refresh every two minutes.

Flight plan parsing failed; only flown route is shown


Map Options




Map Legend


Flown Route
Filed Route
Departure Airport
Arrival Airport
Navaid (VOR, NDB)
Fix

Horizontal Profiles

Position Reports

Time Latitude Longitude Heading Altitude Ground
Speed
04-Oct-17 18:05 33.822432 -116.506108 323 429ft 0kts
04-Oct-17 18:06 33.822432 -116.506108 323 429ft 0kts
04-Oct-17 18:07 33.822432 -116.506108 323 429ft 0kts
04-Oct-17 18:08 33.822432 -116.506108 323 429ft 0kts
04-Oct-17 18:09 33.822432 -116.506108 323 429ft 0kts
04-Oct-17 18:10 33.822260 -116.505954 323 429ft 2kts
04-Oct-17 18:11 33.821930 -116.505786 3 429ft 0kts
04-Oct-17 18:12 33.821930 -116.505786 3 429ft 0kts
04-Oct-17 18:13 33.822088 -116.505736 28 429ft 5kts
04-Oct-17 18:14 33.821945 -116.502799 143 429ft 14kts
04-Oct-17 18:15 33.818972 -116.500161 143 429ft 13kts
04-Oct-17 18:16 33.818443 -116.499110 82 430ft 0kts
04-Oct-17 18:17 33.818443 -116.499110 82 430ft 0kts
04-Oct-17 18:18 33.818448 -116.499067 82 430ft 0kts
04-Oct-17 18:19 33.831065 -116.508942 322 568ft 198kts
04-Oct-17 18:20 33.884494 -116.560909 323 2556ft 260kts
04-Oct-17 18:21 33.930856 -116.522560 103 5036ft 269kts
04-Oct-17 18:22 33.885228 -116.450448 131 7743ft 280kts
04-Oct-17 18:23 33.843850 -116.368597 116 10369ft 304kts
04-Oct-17 18:24 33.805647 -116.276541 119 13007ft 331kts
04-Oct-17 18:25 33.725519 -116.226977 204 15912ft 362kts
04-Oct-17 18:26 33.699534 -116.327275 298 18584ft 378kts
04-Oct-17 18:27 33.761326 -116.431733 299 21348ft 392kts
04-Oct-17 18:28 33.822799 -116.541545 298 22934ft 401kts
04-Oct-17 18:29 33.883358 -116.652417 297 23528ft 400kts
04-Oct-17 18:30 33.945360 -116.766005 297 26212ft 415kts
04-Oct-17 18:31 34.009867 -116.884009 296 28101ft 428kts
04-Oct-17 18:32 34.074237 -117.003397 295 28213ft 424kts
04-Oct-17 18:33 34.137673 -117.122296 295 28205ft 424kts
04-Oct-17 18:34 34.200999 -117.241623 295 28146ft 423kts
04-Oct-17 18:35 34.264358 -117.361566 295 28069ft 425kts
04-Oct-17 18:36 34.327738 -117.481869 295 28068ft 425kts
04-Oct-17 18:37 34.390974 -117.602285 295 28068ft 425kts
04-Oct-17 18:38 34.453677 -117.722211 295 27918ft 424kts
04-Oct-17 18:39 34.516392 -117.842446 295 27915ft 424kts
04-Oct-17 18:40 34.579089 -117.962962 295 27914ft 424kts
04-Oct-17 18:41 34.640813 -118.083910 293 28041ft 423kts
04-Oct-17 18:42 34.699597 -118.207298 293 28047ft 422kts
04-Oct-17 18:43 34.748159 -118.309777 293 28046ft 421kts
04-Oct-17 18:44 34.806214 -118.432676 293 28049ft 421kts
04-Oct-17 18:45 34.873492 -118.575663 293 28152ft 419kts
04-Oct-17 18:46 34.920700 -118.676380 292 28162ft 418kts
04-Oct-17 18:47 34.987465 -118.819315 292 28152ft 418kts
04-Oct-17 18:48 35.044399 -118.941645 292 28161ft 415kts
04-Oct-17 18:49 35.091671 -119.043543 292 28100ft 415kts
04-Oct-17 18:50 35.148017 -119.165462 293 28044ft 416kts
04-Oct-17 18:51 35.204355 -119.287702 293 28043ft 415kts
04-Oct-17 18:52 35.260638 -119.410305 293 28041ft 415kts
04-Oct-17 18:53 35.316746 -119.532982 293 28040ft 414kts
04-Oct-17 18:54 35.372478 -119.655232 292 28041ft 413kts
04-Oct-17 18:55 35.427815 -119.777124 292 28050ft 412kts
04-Oct-17 18:56 35.483371 -119.899851 292 28049ft 412kts
04-Oct-17 18:57 35.537924 -120.021553 293 28050ft 400kts
04-Oct-17 18:58 35.590907 -120.139768 295 28047ft 397kts
04-Oct-17 18:59 35.644229 -120.258087 295 28045ft 397kts
04-Oct-17 19:00 35.695397 -120.377695 291 28043ft 396kts
04-Oct-17 19:01 35.742314 -120.499806 291 28042ft 396kts
04-Oct-17 19:02 35.789302 -120.621937 291 28040ft 397kts
04-Oct-17 19:03 35.834462 -120.741864 291 27302ft 366kts
04-Oct-17 19:04 35.876650 -120.853329 291 26171ft 361kts
04-Oct-17 19:05 35.918544 -120.964451 291 25149ft 357kts
04-Oct-17 19:06 35.959921 -121.074565 291 24137ft 353kts
04-Oct-17 19:07 36.000740 -121.183691 291 23121ft 351kts
04-Oct-17 19:08 36.041230 -121.291909 291 22099ft 347kts
04-Oct-17 19:09 36.099301 -121.385236 319 21042ft 357kts
04-Oct-17 19:10 36.179608 -121.451067 322 20105ft 355kts
04-Oct-17 19:11 36.262839 -121.516491 323 20073ft 356kts
04-Oct-17 19:12 36.346383 -121.581988 323 20071ft 357kts
04-Oct-17 19:13 36.430220 -121.647880 323 20070ft 357kts
04-Oct-17 19:14 36.513418 -121.713417 322 20078ft 357kts
04-Oct-17 19:15 36.597247 -121.779825 322 19540ft 357kts
04-Oct-17 19:16 36.679338 -121.845219 323 17924ft 349kts
04-Oct-17 19:17 36.764005 -121.898881 341 16298ft 344kts
04-Oct-17 19:18 36.847336 -121.943656 353 14998ft 337kts
04-Oct-17 19:19 36.940902 -121.952056 348 14122ft 334kts
04-Oct-17 19:20 37.023942 -121.981634 341 12264ft 281kts
04-Oct-17 19:21 37.097123 -122.010093 341 10570ft 273kts
04-Oct-17 19:22 37.168134 -122.037836 341 8944ft 266kts
04-Oct-17 19:23 37.237874 -122.064996 342 7336ft 260kts
04-Oct-17 19:24 37.305940 -122.091561 342 5992ft 249kts
04-Oct-17 19:25 37.370591 -122.116824 342 5032ft 239kts
04-Oct-17 19:26 37.433377 -122.141374 341 4000ft 236kts
04-Oct-17 19:27 37.491327 -122.163941 341 3643ft 203kts
04-Oct-17 19:28 37.540383 -122.189062 300 3050ft 181kts
04-Oct-17 19:29 37.563191 -122.243730 300 2070ft 163kts
04-Oct-17 19:30 37.584463 -122.293709 300 1179ft 161kts
04-Oct-17 19:31 37.602995 -122.338251 301 437ft 128kts
04-Oct-17 19:32 37.618161 -122.373731 296 20ft 52kts
04-Oct-17 19:33 37.618961 -122.378307 268 20ft 2kts
04-Oct-17 19:34 37.619776 -122.382286 296 20ft 17kts
04-Oct-17 19:35 37.620132 -122.386177 268 20ft 11kts
04-Oct-17 19:36 37.620244 -122.386667 288 20ft 0kts
04-Oct-17 19:37 37.620244 -122.386667 288 20ft 0kts
04-Oct-17 19:38 37.620244 -122.386667 288 20ft 0kts
04-Oct-17 19:39 37.620244 -122.386667 288 20ft 0kts
04-Oct-17 19:40 37.620244 -122.386667 288 20ft 0kts

Navigation Log

Ident Type
Flight plan parsing failed, navigation log unavailable